sensor_id;sensor_type;location;lat;lon;timestamp;pressure;altitude;pressure_sealevel;temperature;humidity
35226;BME280;21813;49.686;21.766;2023-05-12T00:01:37;98663.91;;;10.16;69.37
35226;BME280;21813;49.686;21.766;2023-05-12T00:04:03;98666.28;;;10.19;69.97
35226;BME280;21813;49.686;21.766;2023-05-12T00:06:30;98670.75;;;10.17;69.88
35226;BME280;21813;49.686;21.766;2023-05-12T00:08:55;98671.06;;;10.13;70.36
35226;BME280;21813;49.686;21.766;2023-05-12T00:11:24;98671.53;;;10.07;70.27
35226;BME280;21813;49.686;21.766;2023-05-12T00:13:49;98682.56;;;10.10;70.53
35226;BME280;21813;49.686;21.766;2023-05-12T00:16:16;98675.19;;;10.04;71.10
35226;BME280;21813;49.686;21.766;2023-05-12T00:18:43;98693.41;;;10.04;71.33
35226;BME280;21813;49.686;21.766;2023-05-12T00:21:11;98680.03;;;9.85;71.53
35226;BME280;21813;49.686;21.766;2023-05-12T00:23:37;98684.22;;;9.88;71.85
35226;BME280;21813;49.686;21.766;2023-05-12T00:26:03;98684.66;;;9.82;72.03
35226;BME280;21813;49.686;21.766;2023-05-12T00:28:29;98684.56;;;9.83;72.22
35226;BME280;21813;49.686;21.766;2023-05-12T00:31:00;98686.66;;;9.78;72.54
35226;BME280;21813;49.686;21.766;2023-05-12T00:33:26;98669.09;;;9.69;73.36
35226;BME280;21813;49.686;21.766;2023-05-12T00:35:53;98680.09;;;9.72;73.74
35226;BME280;21813;49.686;21.766;2023-05-12T00:38:18;98675.44;;;9.65;74.16
35226;BME280;21813;49.686;21.766;2023-05-12T00:40:45;98676.09;;;9.56;74.01
35226;BME280;21813;49.686;21.766;2023-05-12T00:43:10;98687.84;;;9.61;74.99
35226;BME280;21813;49.686;21.766;2023-05-12T00:45:36;98669.38;;;9.41;75.19
35226;BME280;21813;49.686;21.766;2023-05-12T00:48:03;98677.19;;;9.41;75.03
35226;BME280;21813;49.686;21.766;2023-05-12T00:50:30;98678.94;;;9.40;74.90
35226;BME280;21813;49.686;21.766;2023-05-12T00:52:57;98685.22;;;9.38;75.58
35226;BME280;21813;49.686;21.766;2023-05-12T00:55:26;98693.53;;;9.43;75.56
35226;BME280;21813;49.686;21.766;2023-05-12T00:57:54;98688.97;;;9.34;76.24
35226;BME280;21813;49.686;21.766;2023-05-12T01:00:21;98691.66;;;9.32;76.46
35226;BME280;21813;49.686;21.766;2023-05-12T01:02:47;98689.78;;;9.21;76.39
35226;BME280;21813;49.686;21.766;2023-05-12T01:05:14;98703.84;;;9.31;76.51
35226;BME280;21813;49.686;21.766;2023-05-12T01:07:41;98681.69;;;9.13;76.71
35226;BME280;21813;49.686;21.766;2023-05-12T01:10:19;98672.34;;;9.11;77.03
35226;BME280;21813;49.686;21.766;2023-05-12T01:12:45;98688.56;;;9.14;76.72
35226;BME280;21813;49.686;21.766;2023-05-12T01:15:12;98700.09;;;9.23;77.68
35226;BME280;21813;49.686;21.766;2023-05-12T01:17:40;98680.47;;;9.06;77.45
35226;BME280;21813;49.686;21.766;2023-05-12T01:20:10;98688.16;;;9.08;77.54
35226;BME280;21813;49.686;21.766;2023-05-12T01:22:36;98691.59;;;9.08;78.16
35226;BME280;21813;49.686;21.766;2023-05-12T01:25:08;98690.13;;;9.04;78.52
35226;BME280;21813;49.686;21.766;2023-05-12T01:27:37;98688.06;;;8.97;78.99
35226;BME280;21813;49.686;21.766;2023-05-12T01:30:05;98705.94;;;9.01;78.94
35226;BME280;21813;49.686;21.766;2023-05-12T01:32:31;98693.75;;;8.89;79.55
35226;BME280;21813;49.686;21.766;2023-05-12T01:34:56;98709.34;;;8.89;79.97
35226;BME280;21813;49.686;21.766;2023-05-12T01:37:22;98702.00;;;8.83;79.88
35226;BME280;21813;49.686;21.766;2023-05-12T01:39:52;98694.38;;;8.80;80.32
35226;BME280;21813;49.686;21.766;2023-05-12T01:42:19;98689.81;;;8.71;80.54
35226;BME280;21813;49.686;21.766;2023-05-12T01:44:45;98692.09;;;8.75;80.26
35226;BME280;21813;49.686;21.766;2023-05-12T01:47:12;98699.72;;;8.78;80.12
35226;BME280;21813;49.686;21.766;2023-05-12T01:49:40;98689.81;;;8.71;80.54
35226;BME280;21813;49.686;21.766;2023-05-12T01:52:06;98694.28;;;8.69;80.49
35226;BME280;21813;49.686;21.766;2023-05-12T01:54:32;98710.41;;;8.74;80.72
35226;BME280;21813;49.686;21.766;2023-05-12T01:56:59;98705.94;;;8.76;81.62
35226;BME280;21813;49.686;21.766;2023-05-12T01:59:25;98705.22;;;8.74;81.18
35226;BME280;21813;49.686;21.766;2023-05-12T02:01:51;98687.13;;;8.60;81.57
35226;BME280;21813;49.686;21.766;2023-05-12T02:04:17;98702.19;;;8.67;81.51
35226;BME280;21813;49.686;21.766;2023-05-12T02:06:44;98690.13;;;8.54;82.59
35226;BME280;21813;49.686;21.766;2023-05-12T02:09:10;98709.34;;;8.64;81.92
35226;BME280;21813;49.686;21.766;2023-05-12T02:11:36;98713.59;;;8.65;82.57
35226;BME280;21813;49.686;21.766;2023-05-12T02:14:02;98706.75;;;8.64;82.51
35226;BME280;21813;49.686;21.766;2023-05-12T02:16:28;98712.66;;;8.66;82.74
35226;BME280;21813;49.686;21.766;2023-05-12T02:18:54;98707.47;;;8.66;82.68
35226;BME280;21813;49.686;21.766;2023-05-12T02:21:20;98708.81;;;8.59;82.55
35226;BME280;21813;49.686;21.766;2023-05-12T02:23:45;98713.81;;;8.62;83.02
35226;BME280;21813;49.686;21.766;2023-05-12T02:26:11;98713.81;;;8.62;82.97
35226;BME280;21813;49.686;21.766;2023-05-12T02:28:36;98719.84;;;8.62;82.97
35226;BME280;21813;49.686;21.766;2023-05-12T02:31:03;98708.91;;;8.57;82.72
35226;BME280;21813;49.686;21.766;2023-05-12T02:33:29;98718.16;;;8.61;83.33
35226;BME280;21813;49.686;21.766;2023-05-12T02:35:54;98716.63;;;8.59;83.28
35226;BME280;21813;49.686;21.766;2023-05-12T02:38:21;98710.50;;;8.60;82.64
35226;BME280;21813;49.686;21.766;2023-05-12T02:40:46;98718.69;;;8.66;83.13
35226;BME280;21813;49.686;21.766;2023-05-12T02:43:12;98724.72;;;8.67;83.40
35226;BME280;21813;49.686;21.766;2023-05-12T02:45:38;98721.00;;;8.71;83.81
35226;BME280;21813;49.686;21.766;2023-05-12T02:48:06;98717.34;;;8.61;83.28
35226;BME280;21813;49.686;21.766;2023-05-12T02:50:31;98733.06;;;8.72;83.25
35226;BME280;21813;49.686;21.766;2023-05-12T02:52:59;98712.88;;;8.63;83.89
35226;BME280;21813;49.686;21.766;2023-05-12T02:55:26;98714.34;;;8.67;83.61
35226;BME280;21813;49.686;21.766;2023-05-12T02:57:55;98729.31;;;8.76;83.60
35226;BME280;21813;49.686;21.766;2023-05-12T03:00:20;98721.81;;;8.71;83.90
35226;BME280;21813;49.686;21.766;2023-05-12T03:02:46;98734.59;;;8.74;83.78
35226;BME280;21813;49.686;21.766;2023-05-12T03:05:12;98725.34;;;8.70;84.29
35226;BME280;21813;49.686;21.766;2023-05-12T03:07:38;98716.19;;;8.65;84.46
35226;BME280;21813;49.686;21.766;2023-05-12T03:10:04;98716.41;;;8.62;84.46
35226;BME280;21813;49.686;21.766;2023-05-12T03:12:31;98731.59;;;8.68;85.12
35226;BME280;21813;49.686;21.766;2023-05-12T03:14:56;98723.91;;;8.66;84.49
35226;BME280;21813;49.686;21.766;2023-05-12T03:17:23;98721.59;;;8.62;85.14
35226;BME280;21813;49.686;21.766;2023-05-12T03:19:49;98728.47;;;8.63;85.16
35226;BME280;21813;49.686;21.766;2023-05-12T03:22:15;98732.63;;;8.65;85.07
35226;BME280;21813;49.686;21.766;2023-05-12T03:24:41;98738.66;;;8.66;86.00
35226;BME280;21813;49.686;21.766;2023-05-12T03:27:09;98726.28;;;8.57;86.23
35226;BME280;21813;49.686;21.766;2023-05-12T03:29:35;98727.19;;;8.56;86.20
35226;BME280;21813;49.686;21.766;2023-05-12T03:32:02;98729.91;;;8.54;86.52
35226;BME280;21813;49.686;21.766;2023-05-12T03:34:27;98741.47;;;8.63;86.74
35226;BME280;21813;49.686;21.766;2023-05-12T03:36:54;98739.06;;;8.60;86.93
35226;BME280;21813;49.686;21.766;2023-05-12T03:39:20;98745.72;;;8.64;86.66
35226;BME280;21813;49.686;21.766;2023-05-12T03:41:48;98744.28;;;8.60;87.13
35226;BME280;21813;49.686;21.766;2023-05-12T03:44:13;98730.53;;;8.58;87.21
35226;BME280;21813;49.686;21.766;2023-05-12T03:46:39;98750.63;;;8.68;87.43
35226;BME280;21813;49.686;21.766;2023-05-12T03:49:05;98746.66;;;8.63;87.41
35226;BME280;21813;49.686;21.766;2023-05-12T03:51:31;98757.28;;;8.72;87.18
35226;BME280;21813;49.686;21.766;2023-05-12T03:53:57;98752.38;;;8.68;87.48
35226;BME280;21813;49.686;21.766;2023-05-12T03:56:23;98744.16;;;8.61;87.09
35226;BME280;21813;49.686;21.766;2023-05-12T03:58:48;98757.38;;;8.71;87.83
35226;BME280;21813;49.686;21.766;2023-05-12T04:01:15;98762.56;;;8.71;88.26
35226;BME280;21813;49.686;21.766;2023-05-12T04:03:40;98760.91;;;8.70;88.33
35226;BME280;21813;49.686;21.766;2023-05-12T04:06:06;98751.47;;;8.69;88.29
35226;BME280;21813;49.686;21.766;2023-05-12T04:08:32;98763.00;;;8.77;87.72
35226;BME280;21813;49.686;21.766;2023-05-12T04:10:59;98755.31;;;8.76;87.86
35226;BME280;21813;49.686;21.766;2023-05-12T04:13:27;98757.50;;;8.82;88.02
35226;BME280;21813;49.686;21.766;2023-05-12T04:15:56;98751.06;;;8.88;87.16
35226;BME280;21813;49.686;21.766;2023-05-12T04:18:25;98767.69;;;8.98;87.01
35226;BME280;21813;49.686;21.766;2023-05-12T04:20:54;98763.16;;;9.01;86.42
35226;BME280;21813;49.686;21.766;2023-05-12T04:23:20;98773.63;;;9.12;85.84
35226;BME280;21813;49.686;21.766;2023-05-12T04:25:46;98768.66;;;9.22;85.50
35226;BME280;21813;49.686;21.766;2023-05-12T04:28:12;98765.50;;;9.29;85.13
35226;BME280;21813;49.686;21.766;2023-05-12T04:30:39;98763.34;;;9.36;85.44
35226;BME280;21813;49.686;21.766;2023-05-12T04:33:06;98754.06;;;9.45;85.16
35226;BME280;21813;49.686;21.766;2023-05-12T04:35:32;98750.13;;;9.52;84.73
35226;BME280;21813;49.686;21.766;2023-05-12T04:37:58;98763.94;;;9.65;85.16
35226;BME280;21813;49.686;21.766;2023-05-12T04:40:26;98757.56;;;9.69;84.41
35226;BME280;21813;49.686;21.766;2023-05-12T04:42:52;98761.91;;;9.81;83.30
35226;BME280;21813;49.686;21.766;2023-05-12T04:45:18;98760.56;;;9.88;83.17
35226;BME280;21813;49.686;21.766;2023-05-12T04:47:44;98777.69;;;10.03;82.94
35226;BME280;21813;49.686;21.766;2023-05-12T04:50:12;98776.09;;;10.13;82.06
35226;BME280;21813;49.686;21.766;2023-05-12T04:52:38;98765.38;;;10.18;81.60
35226;BME280;21813;49.686;21.766;2023-05-12T04:55:05;98776.25;;;10.36;81.21
35226;BME280;21813;49.686;21.766;2023-05-12T04:57:32;98775.69;;;10.43;80.41
35226;BME280;21813;49.686;21.766;2023-05-12T04:59:59;98761.88;;;10.54;80.43
35226;BME280;21813;49.686;21.766;2023-05-12T05:02:29;98776.66;;;10.77;79.03
35226;BME280;21813;49.686;21.766;2023-05-12T05:04:55;98782.84;;;10.87;78.96
35226;BME280;21813;49.686;21.766;2023-05-12T05:07:21;98785.50;;;10.98;78.17
35226;BME280;21813;49.686;21.766;2023-05-12T05:09:47;98783.63;;;11.12;77.48
35226;BME280;21813;49.686;21.766;2023-05-12T05:12:13;98783.41;;;11.26;77.04
35226;BME280;21813;49.686;21.766;2023-05-12T05:14:39;98782.47;;;11.49;76.60
35226;BME280;21813;49.686;21.766;2023-05-12T05:17:05;98783.81;;;11.88;73.19
35226;BME280;21813;49.686;21.766;2023-05-12T05:19:35;98789.59;;;12.03;73.10
35226;BME280;21813;49.686;21.766;2023-05-12T05:22:00;98755.41;;;12.06;71.57
35226;BME280;21813;49.686;21.766;2023-05-12T05:24:28;98778.78;;;12.50;70.13
35226;BME280;21813;49.686;21.766;2023-05-12T05:26:53;98782.31;;;12.60;68.97
35226;BME280;21813;49.686;21.766;2023-05-12T05:29:20;98780.19;;;12.54;69.74
35226;BME280;21813;49.686;21.766;2023-05-12T05:31:45;98784.13;;;12.49;70.23
35226;BME280;21813;49.686;21.766;2023-05-12T05:34:12;98800.25;;;12.65;69.44
35226;BME280;21813;49.686;21.766;2023-05-12T05:36:38;98788.69;;;12.99;67.88
35226;BME280;21813;49.686;21.766;2023-05-12T05:39:06;98785.75;;;13.64;65.91
35226;BME280;21813;49.686;21.766;2023-05-12T05:41:31;98789.44;;;13.92;63.81
35226;BME280;21813;49.686;21.766;2023-05-12T05:43:57;98786.63;;;13.75;63.30
35226;BME280;21813;49.686;21.766;2023-05-12T05:46:23;98798.69;;;13.56;64.49
35226;BME280;21813;49.686;21.766;2023-05-12T05:48:49;98786.63;;;13.75;63.75
35226;BME280;21813;49.686;21.766;2023-05-12T05:51:14;98781.94;;;13.78;63.43
35226;BME280;21813;49.686;21.766;2023-05-12T05:53:41;98789.56;;;13.81;64.14
35226;BME280;21813;49.686;21.766;2023-05-12T05:56:06;98793.66;;;13.74;62.47
35226;BME280;21813;49.686;21.766;2023-05-12T05:58:33;98801.06;;;13.59;63.41
35226;BME280;21813;49.686;21.766;2023-05-12T06:00:59;98800.63;;;13.54;65.27
35226;BME280;21813;49.686;21.766;2023-05-12T06:03:25;98807.44;;;13.66;64.33
35226;BME280;21813;49.686;21.766;2023-05-12T06:05:51;98811.72;;;13.67;63.81
35226;BME280;21813;49.686;21.766;2023-05-12T06:08:17;98813.38;;;13.68;64.73
35226;BME280;21813;49.686;21.766;2023-05-12T06:10:43;98821.91;;;13.70;67.18
35226;BME280;21813;49.686;21.766;2023-05-12T06:13:09;98804.00;;;13.76;66.93
35226;BME280;21813;49.686;21.766;2023-05-12T06:15:44;98817.59;;;13.90;66.94
35226;BME280;21813;49.686;21.766;2023-05-12T06:18:15;98809.63;;;14.01;65.28
35226;BME280;21813;49.686;21.766;2023-05-12T06:20:41;98812.97;;;14.13;61.46
35226;BME280;21813;49.686;21.766;2023-05-12T06:23:07;98807.88;;;14.21;58.93
35226;BME280;21813;49.686;21.766;2023-05-12T06:25:33;98811.31;;;14.12;60.24
35226;BME280;21813;49.686;21.766;2023-05-12T06:27:59;98812.88;;;14.24;60.11
35226;BME280;21813;49.686;21.766;2023-05-12T06:30:25;98799.53;;;14.37;60.96
35226;BME280;21813;49.686;21.766;2023-05-12T06:32:51;98813.63;;;14.45;61.15
35226;BME280;21813;49.686;21.766;2023-05-12T06:35:17;98814.19;;;14.58;59.96
35226;BME280;21813;49.686;21.766;2023-05-12T06:37:44;98812.53;;;14.77;56.60
35226;BME280;21813;49.686;21.766;2023-05-12T06:40:14;98802.06;;;14.86;56.47
35226;BME280;21813;49.686;21.766;2023-05-12T06:42:40;98803.97;;;14.94;56.64
35226;BME280;21813;49.686;21.766;2023-05-12T06:45:06;98813.63;;;15.03;58.65
35226;BME280;21813;49.686;21.766;2023-05-12T06:47:32;98811.41;;;15.08;60.21
35226;BME280;21813;49.686;21.766;2023-05-12T06:49:58;98783.25;;;15.10;60.22
35226;BME280;21813;49.686;21.766;2023-05-12T06:52:25;98807.25;;;15.34;57.78
35226;BME280;21813;49.686;21.766;2023-05-12T06:54:51;98807.53;;;15.31;58.62
35226;BME280;21813;49.686;21.766;2023-05-12T06:57:17;98808.50;;;15.30;57.82
35226;BME280;21813;49.686;21.766;2023-05-12T06:59:42;98821.03;;;15.46;56.86
35226;BME280;21813;49.686;21.766;2023-05-12T07:02:08;98795.06;;;15.53;56.35
35226;BME280;21813;49.686;21.766;2023-05-12T07:04:34;98818.75;;;15.80;55.63
35226;BME280;21813;49.686;21.766;2023-05-12T07:07:00;98810.31;;;15.86;55.64
35226;BME280;21813;49.686;21.766;2023-05-12T07:09:26;98809.81;;;16.00;54.82
35226;BME280;21813;49.686;21.766;2023-05-12T07:11:52;98804.84;;;15.97;51.31
35226;BME280;21813;49.686;21.766;2023-05-12T07:14:18;98799.63;;;15.87;52.14
35226;BME280;21813;49.686;21.766;2023-05-12T07:16:44;98804.31;;;15.94;52.73
35226;BME280;21813;49.686;21.766;2023-05-12T07:19:11;98795.16;;;15.98;55.39
35226;BME280;21813;49.686;21.766;2023-05-12T07:21:36;98807.28;;;16.08;54.71
35226;BME280;21813;49.686;21.766;2023-05-12T07:24:02;98806.69;;;16.14;54.15
35226;BME280;21813;49.686;21.766;2023-05-12T07:26:30;98804.22;;;16.13;53.71
35226;BME280;21813;49.686;21.766;2023-05-12T07:28:56;98798.41;;;16.09;52.48
35226;BME280;21813;49.686;21.766;2023-05-12T07:31:25;98796.03;;;16.16;52.23
35226;BME280;21813;49.686;21.766;2023-05-12T07:33:51;98796.66;;;16.27;54.27
35226;BME280;21813;49.686;21.766;2023-05-12T07:36:16;98795.16;;;16.43;53.32
35226;BME280;21813;49.686;21.766;2023-05-12T07:38:42;98798.66;;;16.61;51.66
35226;BME280;21813;49.686;21.766;2023-05-12T07:41:09;98789.22;;;16.68;48.47
35226;BME280;21813;49.686;21.766;2023-05-12T07:43:35;98783.56;;;16.81;51.56
35226;BME280;21813;49.686;21.766;2023-05-12T07:46:01;98800.19;;;16.81;52.95
35226;BME280;21813;49.686;21.766;2023-05-12T07:48:26;98791.16;;;16.66;53.04
35226;BME280;21813;49.686;21.766;2023-05-12T07:50:52;98790.00;;;16.51;53.69
35226;BME280;21813;49.686;21.766;2023-05-12T07:53:18;98786.63;;;16.41;53.29
35226;BME280;21813;49.686;21.766;2023-05-12T07:55:49;98788.25;;;16.42;53.15
35226;BME280;21813;49.686;21.766;2023-05-12T07:58:14;98801.69;;;16.66;48.57
35226;BME280;21813;49.686;21.766;2023-05-12T08:00:41;98782.28;;;16.67;47.05
35226;BME280;21813;49.686;21.766;2023-05-12T08:03:09;98795.50;;;16.75;45.66
35226;BME280;21813;49.686;21.766;2023-05-12T08:05:34;98805.75;;;16.78;47.50
35226;BME280;21813;49.686;21.766;2023-05-12T08:08:00;98801.41;;;16.69;47.04
35226;BME280;21813;49.686;21.766;2023-05-12T08:10:26;98791.47;;;16.63;47.55
35226;BME280;21813;49.686;21.766;2023-05-12T08:12:54;98800.78;;;16.75;46.99
35226;BME280;21813;49.686;21.766;2023-05-12T08:15:20;98799.81;;;16.76;45.44
35226;BME280;21813;49.686;21.766;2023-05-12T08:17:46;98787.41;;;16.86;47.11
35226;BME280;21813;49.686;21.766;2023-05-12T08:20:12;98791.44;;;16.98;44.89
35226;BME280;21813;49.686;21.766;2023-05-12T08:22:38;98790.06;;;17.12;44.74
35226;BME280;21813;49.686;21.766;2023-05-12T08:25:05;98802.53;;;17.28;43.32
35226;BME280;21813;49.686;21.766;2023-05-12T08:27:31;98794.63;;;17.28;44.46
35226;BME280;21813;49.686;21.766;2023-05-12T08:29:57;98802.63;;;17.44;42.62
35226;BME280;21813;49.686;21.766;2023-05-12T08:32:24;98795.72;;;17.43;45.59
35226;BME280;21813;49.686;21.766;2023-05-12T08:34:50;98787.25;;;17.31;43.48
35226;BME280;21813;49.686;21.766;2023-05-12T08:37:15;98789.38;;;17.28;44.83
35226;BME280;21813;49.686;21.766;2023-05-12T08:39:41;98792.00;;;17.28;43.01
35226;BME280;21813;49.686;21.766;2023-05-12T08:44:52;98794.03;;;17.16;43.87
35226;BME280;21813;49.686;21.766;2023-05-12T08:47:19;98791.88;;;17.11;43.31
35226;BME280;21813;49.686;21.766;2023-05-12T08:49:48;98796.69;;;16.98;44.71
35226;BME280;21813;49.686;21.766;2023-05-12T08:52:19;98790.59;;;16.98;45.81
35226;BME280;21813;49.686;21.766;2023-05-12T08:54:48;98790.16;;;17.02;45.79
35226;BME280;21813;49.686;21.766;2023-05-12T08:57:17;98799.75;;;17.11;44.39
35226;BME280;21813;49.686;21.766;2023-05-12T08:59:43;98794.50;;;17.11;43.65
35226;BME280;21813;49.686;21.766;2023-05-12T09:02:10;98785.47;;;17.14;44.91
35226;BME280;21813;49.686;21.766;2023-05-12T09:04:37;98791.03;;;17.29;43.65
35226;BME280;21813;49.686;21.766;2023-05-12T09:07:04;98788.56;;;17.35;42.64
35226;BME280;21813;49.686;21.766;2023-05-12T09:09:32;98795.91;;;17.49;43.08
35226;BME280;21813;49.686;21.766;2023-05-12T09:12:00;98789.81;;;17.49;40.21
35226;BME280;21813;49.686;21.766;2023-05-12T09:14:28;98789.81;;;17.49;41.37
35226;BME280;21813;49.686;21.766;2023-05-12T09:17:01;98790.50;;;17.51;40.55
35226;BME280;21813;49.686;21.766;2023-05-12T09:19:28;98785.22;;;17.51;43.05
35226;BME280;21813;49.686;21.766;2023-05-12T09:21:54;98781.88;;;17.41;40.46
35226;BME280;21813;49.686;21.766;2023-05-12T09:24:19;98792.72;;;17.38;38.53
35226;BME280;21813;49.686;21.766;2023-05-12T09:26:51;98788.06;;;17.32;38.33
35226;BME280;21813;49.686;21.766;2023-05-12T09:29:18;98775.56;;;17.34;38.94
35226;BME280;21813;49.686;21.766;2023-05-12T09:31:51;98779.91;;;17.43;40.15
35226;BME280;21813;49.686;21.766;2023-05-12T09:34:18;98786.63;;;17.63;42.95
35226;BME280;21813;49.686;21.766;2023-05-12T09:36:54;98772.22;;;17.75;44.09
35226;BME280;21813;49.686;21.766;2023-05-12T09:39:20;98779.06;;;17.94;42.20
35226;BME280;21813;49.686;21.766;2023-05-12T09:41:46;98791.75;;;17.98;41.16
35226;BME280;21813;49.686;21.766;2023-05-12T09:44:14;98780.19;;;17.91;42.39
35226;BME280;21813;49.686;21.766;2023-05-12T09:46:45;98776.91;;;17.89;43.56
35226;BME280;21813;49.686;21.766;2023-05-12T09:49:16;98776.09;;;17.97;43.69
35226;BME280;21813;49.686;21.766;2023-05-12T09:51:42;98766.88;;;18.01;43.87
35226;BME280;21813;49.686;21.766;2023-05-12T09:54:08;98776.94;;;18.05;42.28
35226;BME280;21813;49.686;21.766;2023-05-12T09:56:36;98768.69;;;18.00;43.08
35226;BME280;21813;49.686;21.766;2023-05-12T09:59:03;98768.03;;;18.06;44.56
35226;BME280;21813;49.686;21.766;2023-05-12T10:01:29;98774.31;;;18.14;43.85
35226;BME280;21813;49.686;21.766;2023-05-12T10:03:57;98775.28;;;18.04;41.11
35226;BME280;21813;49.686;21.766;2023-05-12T10:06:31;98755.84;;;18.05;40.27
35226;BME280;21813;49.686;21.766;2023-05-12T10:09:18;98761.38;;;17.94;38.20
35226;BME280;21813;49.686;21.766;2023-05-12T10:11:46;98754.25;;;17.79;37.78
35226;BME280;21813;49.686;21.766;2023-05-12T10:14:13;98741.56;;;17.74;38.12
35226;BME280;21813;49.686;21.766;2023-05-12T10:16:39;98744.94;;;18.08;38.07
35226;BME280;21813;49.686;21.766;2023-05-12T10:19:06;98736.75;;;18.20;39.73
35226;BME280;21813;49.686;21.766;2023-05-12T10:21:33;98757.66;;;18.63;35.15
35226;BME280;21813;49.686;21.766;2023-05-12T10:24:02;98743.28;;;18.58;35.89
35226;BME280;21813;49.686;21.766;2023-05-12T10:26:30;98742.59;;;18.64;35.17
35226;BME280;21813;49.686;21.766;2023-05-12T10:28:58;98749.41;;;18.66;35.78
35226;BME280;21813;49.686;21.766;2023-05-12T10:31:25;98741.97;;;18.62;36.36
35226;BME280;21813;49.686;21.766;2023-05-12T10:33:59;98747.88;;;18.64;35.28
35226;BME280;21813;49.686;21.766;2023-05-12T10:36:25;98741.47;;;18.74;33.70
35226;BME280;21813;49.686;21.766;2023-05-12T10:38:51;98750.72;;;18.94;33.07
35226;BME280;21813;49.686;21.766;2023-05-12T10:41:28;98735.22;;;18.67;33.34
35226;BME280;21813;49.686;21.766;2023-05-12T10:43:54;98739.16;;;18.63;34.54
35226;BME280;21813;49.686;21.766;2023-05-12T10:46:21;98750.91;;;18.77;31.39
35226;BME280;21813;49.686;21.766;2023-05-12T10:49:00;98743.78;;;18.53;32.01
35226;BME280;21813;49.686;21.766;2023-05-12T10:51:29;98739.44;;;18.44;32.64
35226;BME280;21813;49.686;21.766;2023-05-12T10:53:59;98730.50;;;18.29;33.14
35226;BME280;21813;49.686;21.766;2023-05-12T10:56:29;98738.41;;;18.29;33.86
35226;BME280;21813;49.686;21.766;2023-05-12T10:59:24;98729.19;;;18.25;33.19
35226;BME280;21813;49.686;21.766;2023-05-12T11:02:02;98740.72;;;18.16;33.49
35226;BME280;21813;49.686;21.766;2023-05-12T11:07:03;98737.72;;;18.10;35.11
35226;BME280;21813;49.686;21.766;2023-05-12T11:09:29;98739.31;;;17.95;34.35
35226;BME280;21813;49.686;21.766;2023-05-12T11:11:55;98728.59;;;17.89;34.66
35226;BME280;21813;49.686;21.766;2023-05-12T11:14:21;98724.16;;;17.89;35.00
35226;BME280;21813;49.686;21.766;2023-05-12T11:16:47;98731.06;;;17.90;36.07
35226;BME280;21813;49.686;21.766;2023-05-12T11:19:12;98726.19;;;18.12;36.09
35226;BME280;21813;49.686;21.766;2023-05-12T11:21:38;98731.00;;;18.24;35.31
35226;BME280;21813;49.686;21.766;2023-05-12T11:24:06;98729.88;;;18.51;35.56
35226;BME280;21813;49.686;21.766;2023-05-12T11:26:32;98727.94;;;18.77;33.08
35226;BME280;21813;49.686;21.766;2023-05-12T11:28:58;98725.31;;;18.77;33.16
35226;BME280;21813;49.686;21.766;2023-05-12T11:31:24;98712.41;;;18.74;33.24
35226;BME280;21813;49.686;21.766;2023-05-12T11:34:03;98738.50;;;18.53;32.81
35226;BME280;21813;49.686;21.766;2023-05-12T11:36:41;98735.50;;;18.56;32.91
35226;BME280;21813;49.686;21.766;2023-05-12T11:39:17;98724.31;;;18.62;33.36
35226;BME280;21813;49.686;21.766;2023-05-12T11:41:43;98728.59;;;18.63;33.08
35226;BME280;21813;49.686;21.766;2023-05-12T11:44:23;98724.97;;;18.56;34.70
35226;BME280;21813;49.686;21.766;2023-05-12T11:47:11;98724.63;;;18.59;35.48
35226;BME280;21813;49.686;21.766;2023-05-12T11:49:52;98717.22;;;18.71;34.39
35226;BME280;21813;49.686;21.766;2023-05-12T11:52:20;98725.28;;;18.93;33.25
35226;BME280;21813;49.686;21.766;2023-05-12T11:55:05;98735.84;;;18.93;33.54
35226;BME280;21813;49.686;21.766;2023-05-12T11:57:33;98726.44;;;18.75;34.35
35226;BME280;21813;49.686;21.766;2023-05-12T12:00:02;98733.03;;;18.79;33.90
35226;BME280;21813;49.686;21.766;2023-05-12T12:02:28;98760.59;;;18.60;33.43
35226;BME280;21813;49.686;21.766;2023-05-12T12:04:55;98715.00;;;18.50;35.06
35226;BME280;21813;49.686;21.766;2023-05-12T12:09:54;98721.66;;;18.62;36.21
35226;BME280;21813;49.686;21.766;2023-05-12T12:12:20;98710.28;;;18.70;36.40
35226;BME280;21813;49.686;21.766;2023-05-12T12:14:46;98725.31;;;18.77;35.28
35226;BME280;21813;49.686;21.766;2023-05-12T12:17:11;98709.47;;;18.77;35.11
35226;BME280;21813;49.686;21.766;2023-05-12T12:19:38;98728.09;;;18.92;34.46
35226;BME280;21813;49.686;21.766;2023-05-12T12:22:03;98716.06;;;18.81;34.11
35226;BME280;21813;49.686;21.766;2023-05-12T12:24:29;98716.84;;;18.49;35.09
35226;BME280;21813;49.686;21.766;2023-05-12T12:26:55;98707.59;;;18.45;34.19
35226;BME280;21813;49.686;21.766;2023-05-12T12:29:21;98705.97;;;18.44;34.64
35226;BME280;21813;49.686;21.766;2023-05-12T12:31:49;98711.06;;;18.30;35.04
35226;BME280;21813;49.686;21.766;2023-05-12T12:34:15;98703.78;;;18.32;35.41
35226;BME280;21813;49.686;21.766;2023-05-12T12:36:40;98711.38;;;18.43;35.74
35226;BME280;21813;49.686;21.766;2023-05-12T12:39:06;98715.00;;;18.42;35.78
35226;BME280;21813;49.686;21.766;2023-05-12T12:41:32;98706.91;;;18.27;35.08
35226;BME280;21813;49.686;21.766;2023-05-12T12:43:58;98717.13;;;18.22;35.74
35226;BME280;21813;49.686;21.766;2023-05-12T12:46:23;98717.47;;;18.27;35.44
35226;BME280;21813;49.686;21.766;2023-05-12T12:48:49;98710.22;;;18.21;35.39
35226;BME280;21813;49.686;21.766;2023-05-12T12:51:15;98716.28;;;18.14;35.44
35226;BME280;21813;49.686;21.766;2023-05-12T12:53:41;98717.44;;;18.19;35.54
35226;BME280;21813;49.686;21.766;2023-05-12T12:56:10;98725.22;;;18.13;35.70
35226;BME280;21813;49.686;21.766;2023-05-12T12:58:36;98706.25;;;18.17;36.07
35226;BME280;21813;49.686;21.766;2023-05-12T13:01:01;98710.22;;;18.21;36.05